This is the latest recevied weather packets stored in our database for station/object FREPRT-WX. If no packets are shown the sender has not sent any weather packets the latest 1 day(s).
| Time | Temp. | Humidity | Pressure | Rain* | Wind** | Luminosity | Snow |
|---|---|---|---|---|---|---|---|
| 1778022065 | 11.11° C | 35% | 980.7 hPa | 0 mm | 4.92 m/s, 288° | - | - |
| 1778021138 | 11.11° C | 35% | 980.7 hPa | 0 mm | 5.36 m/s, 288° | - | - |
| 1778020257 | 11.11° C | 36% | 981 hPa | 0 mm | 5.36 m/s, 284° | - | - |
| 1778019338 | 11.67° C | 36% | 981 hPa | 0 mm | 5.81 m/s, 281° | - | - |
| 1778018468 | 11.67° C | 36% | 981 hPa | 0 mm | 5.81 m/s, 279° | - | - |
| 1778017538 | 12.22° C | 37% | 980.7 hPa | 0 mm | 6.26 m/s, 278° | - | - |
| 1778016658 | 11.67° C | 36% | 980.3 hPa | 0 mm | 6.26 m/s, 277° | - | - |
| 1778015737 | 12.22° C | 36% | 980.3 hPa | 0 mm | 6.71 m/s, 277° | - | - |
| 1778014870 | 12.22° C | 36% | 980.3 hPa | 0 mm | 6.71 m/s, 277° | - | - |
| 1778013937 | 12.22° C | 37% | 980.7 hPa | 0 mm | 6.71 m/s, 275° | - | - |
| 1778013059 | 12.22° C | 34% | 979.8 hPa | 0 mm | 6.71 m/s, 273° | - | - |
| 1778012138 | 12.22° C | 34% | 979.8 hPa | 0 mm | 6.71 m/s, 274° | - | - |
| 1778011267 | 12.22° C | 34% | 979.8 hPa | 0 mm | 6.71 m/s, 274° | - | - |
| 1778010337 | 12.22° C | 34% | 979.7 hPa | 0 mm | 6.71 m/s, 271° | - | - |
| 1778009454 | 12.78° C | 34% | 979.7 hPa | 0 mm | 6.71 m/s, 270° | - | - |
| 1778008540 | 12.78° C | 34% | 979.7 hPa | 0 mm | 6.71 m/s, 266° | - | - |
| 1778007666 | 12.78° C | 34% | 979.7 hPa | 0 mm | 6.26 m/s, 267° | - | - |
| 1778006740 | 12.78° C | 37% | 980.2 hPa | 0 mm | 6.71 m/s, 265° | - | - |
| 1778005863 | 12.78° C | 38% | 979.6 hPa | 0 mm | 6.71 m/s, 273° | - | - |
| 1778004940 | 12.78° C | 38% | 979.7 hPa | 0 mm | 6.26 m/s, 274° | - | - |
| 1778004072 | 12.78° C | 38% | 979.7 hPa | 0 mm | 6.26 m/s, 270° | - | - |
| 1778003140 | 12.78° C | 36% | 978.9 hPa | 0 mm | 6.26 m/s, 272° | - | - |
| 1778002256 | 12.78° C | 35% | 978.2 hPa | 0 mm | 6.26 m/s, 274° | - | - |
| 1778001340 | 12.22° C | 35% | 978.2 hPa | 0 mm | 5.81 m/s, 274° | - | - |
| 1778000470 | 12.22° C | 35% | 978.2 hPa | 0 mm | 5.81 m/s, 278° | - | - |
* Rain latest hour (hover to see other rain measurements)
** Current wind speed in m/s (hover to see current wind gust speed)